Time;durP1;ratioP1;P1;durP2;ratioP2;P2;SDS_P1;SDS_P2;PMS_P1;PMS_P2;Temp;Humidity;BMP_temperature;BMP_pressure;BME280_temperature;BME280_humidity;BME280_pressure;Samples;Min_cycle;Max_cycle;Signal;HPM_P1;HPM_P2
2022/08/09 00:01:33;;;;;;;2.22;0.85;;;;;;;28.73;30.92;102161.34;5115747;28;20027;-45
2022/08/09 00:04:02;;;;;;;2.92;0.90;;;;;;;28.62;31.19;102169.13;5115663;28;20089;-45
2022/08/09 00:06:30;;;;;;;3.58;0.90;;;;;;;28.46;31.23;102137.25;5115905;28;20036;-45
2022/08/09 00:08:59;;;;;;;3.05;1.20;;;;;;;28.58;31.36;102169.94;5115674;28;20065;-45
2022/08/09 00:11:28;;;;;;;3.50;1.02;;;;;;;28.58;31.41;102162.03;5115613;28;20034;-44
2022/08/09 00:13:57;;;;;;;6.97;1.48;;;;;;;28.61;31.29;102162.06;5115888;28;20108;-51
2022/08/09 00:16:25;;;;;;;2.58;1.00;;;;;;;28.55;31.21;102154.97;5115774;28;20161;-44
2022/08/09 00:18:54;;;;;;;2.40;1.20;;;;;;;28.60;31.35;102163.84;5115585;28;20039;-45
2022/08/09 00:21:23;;;;;;;3.30;1.10;;;;;;;28.62;31.36;102170.03;5114067;28;20474;-49
2022/08/09 00:23:52;;;;;;;3.53;1.20;;;;;;;28.61;31.45;102170.88;5115865;28;20023;-45
2022/08/09 00:26:20;;;;;;;3.28;1.02;;;;;;;28.62;31.29;102169.13;5115690;28;20023;-51
2022/08/09 00:28:49;;;;;;;1.70;1.00;;;;;;;28.63;31.45;102168.25;5115469;28;20103;-44
2022/08/09 00:31:17;;;;;;;2.17;1.10;;;;;;;28.60;31.48;102163.84;5115324;28;20104;-44
2022/08/09 00:33:46;;;;;;;4.30;1.25;;;;;;;28.43;31.49;102160.97;5097367;28;20048;-53
2022/08/09 00:36:14;;;;;;;4.53;1.33;;;;;;;28.52;31.52;102170.75;5115533;28;20359;-44
2022/08/09 00:38:43;;;;;;;2.00;0.93;;;;;;;28.57;31.41;102161.16;5115354;28;20023;-43
2022/08/09 00:41:12;;;;;;;2.97;0.90;;;;;;;28.64;31.45;102159.47;5114726;28;20027;-47
2022/08/09 00:43:41;;;;;;;2.22;0.95;;;;;;;28.66;31.44;102163.03;5115271;28;20110;-45
2022/08/09 00:46:10;;;;;;;3.35;1.15;;;;;;;28.60;31.31;102157.66;5097295;28;20085;-45
2022/08/09 00:48:39;;;;;;;3.42;1.10;;;;;;;28.58;31.54;102156.75;5115382;28;20024;-44
2022/08/09 00:51:07;;;;;;;1.67;0.95;;;;;;;28.56;31.37;102151.47;5115047;28;20042;-45
2022/08/09 00:53:37;;;;;;;5.07;1.35;;;;;;;28.60;31.53;102158.56;5114940;28;20070;-44
2022/08/09 00:56:06;;;;;;;3.83;1.20;;;;;;;28.56;31.55;102155.84;5114473;28;20032;-44
2022/08/09 00:58:35;;;;;;;2.72;1.20;;;;;;;28.60;31.67;102160.28;5096837;28;20114;-45
2022/08/09 01:01:07;;;;;;;3.80;1.20;;;;;;;28.53;31.84;102161.97;5115002;28;20031;-45
2022/08/09 01:03:40;;;;;;;5.30;1.48;;;;;;;28.50;31.87;102154.91;5115182;28;20416;-45
2022/08/09 01:06:12;;;;;;;3.97;1.65;;;;;;;28.50;31.72;102159.28;5097001;28;20047;-46
2022/08/09 01:08:49;;;;;;;2.13;0.90;;;;;;;28.48;32.08;102146.09;5114959;28;20028;-44
2022/08/09 01:11:38;;;;;;;3.75;1.38;;;;;;;28.50;31.79;102154.91;5096717;28;20034;-44
2022/08/09 01:14:19;;;;;;;3.95;1.20;;;;;;;28.39;32.22;102155.63;5107672;28;20032;-45
2022/08/09 01:16:50;;;;;;;4.53;1.33;;;;;;;28.41;32.06;102143.34;5114577;28;20156;-44
2022/08/09 01:19:48;;;;;;;3.35;1.23;;;;;;;28.34;32.23;102148.53;5096187;28;20031;-52
2022/08/09 01:22:36;;;;;;;3.20;1.33;;;;;;;28.44;32.15;102138.97;5093471;28;20063;-44
2022/08/09 01:25:24;;;;;;;8.93;1.42;;;;;;;28.31;32.41;102143.22;5114658;28;20023;-44
2022/08/09 01:27:53;;;;;;;3.88;1.55;;;;;;;28.28;32.13;102135.28;5106925;28;20556;-44
2022/08/09 01:30:24;;;;;;;4.97;1.42;;;;;;;28.28;32.25;102143.19;5113745;28;20607;-44
2022/08/09 01:32:54;;;;;;;4.13;1.27;;;;;;;28.24;32.60;102135.19;5113995;28;20089;-45
2022/08/09 01:35:29;;;;;;;4.47;1.08;;;;;;;28.25;32.48;102131.69;5096904;28;20019;-51
2022/08/09 01:38:01;;;;;;;3.50;1.30;;;;;;;28.22;32.54;102134.28;5114359;28;20483;-44
2022/08/09 01:40:30;;;;;;;4.20;1.23;;;;;;;28.22;32.63;102127.28;5113791;28;20024;-44
2022/08/09 01:42:59;;;;;;;2.33;1.08;;;;;;;28.26;32.67;102130.81;5096404;28;20031;-45
2022/08/09 01:45:28;;;;;;;2.88;1.08;;;;;;;28.28;32.52;102132.66;5096030;28;20030;-44
2022/08/09 01:47:57;;;;;;;3.55;1.30;;;;;;;28.19;32.52;102120.22;5095561;28;20028;-44
2022/08/09 01:50:27;;;;;;;4.78;1.08;;;;;;;28.18;32.58;102126.34;5095935;28;20045;-45
2022/08/09 01:52:57;;;;;;;2.90;1.25;;;;;;;28.24;32.83;102127.28;5113640;28;20019;-44
2022/08/09 01:55:25;;;;;;;4.18;1.10;;;;;;;28.17;32.58;102124.59;5114078;28;20131;-45
2022/08/09 01:57:54;;;;;;;5.93;1.52;;;;;;;28.23;32.61;102128.13;5114112;28;20019;-44
2022/08/09 02:00:23;;;;;;;2.22;1.30;;;;;;;28.23;32.55;102131.69;5095568;28;20066;-50
2022/08/09 02:02:52;;;;;;;2.15;0.88;;;;;;;28.18;32.78;102123.72;5096118;28;20047;-45
2022/08/09 02:05:22;;;;;;;4.18;1.13;;;;;;;28.14;32.69;102131.53;5113896;28;20024;-45
2022/08/09 02:07:56;;;;;;;4.43;1.45;;;;;;;28.17;32.65;102135.13;5113794;28;20065;-45
2022/08/09 02:10:29;;;;;;;3.60;1.38;;;;;;;28.14;32.61;102128.91;5095720;28;20035;-45
2022/08/09 02:13:01;;;;;;;4.53;1.42;;;;;;;28.07;32.68;102129.66;5078350;28;20486;-44
2022/08/09 02:15:33;;;;;;;4.28;1.10;;;;;;;28.13;32.81;102122.75;5113602;28;20028;-46
2022/08/09 02:18:05;;;;;;;5.00;1.60;;;;;;;28.17;32.55;102127.22;5095563;28;20030;-44
2022/08/09 02:20:35;;;;;;;4.00;1.23;;;;;;;28.05;32.62;102116.44;5095420;28;20066;-44
2022/08/09 02:23:09;;;;;;;3.17;1.20;;;;;;;28.12;32.71;102133.31;5095734;28;20019;-53
2022/08/09 02:25:40;;;;;;;7.27;1.67;;;;;;;28.10;32.65;102133.25;5113130;28;20055;-48
2022/08/09 02:28:29;;;;;;;3.53;1.38;;;;;;;28.06;32.77;102126.13;5095402;28;20040;-44
2022/08/09 02:31:11;;;;;;;2.03;1.05;;;;;;;27.99;32.93;102124.28;5106859;28;20040;-44
2022/08/09 02:33:42;;;;;;;3.42;1.35;;;;;;;28.02;32.88;102134.88;5095062;28;20103;-44
2022/08/09 02:36:18;;;;;;;3.40;1.25;;;;;;;28.05;32.88;102130.53;5113064;28;20102;-44
2022/08/09 02:38:51;;;;;;;3.28;1.40;;;;;;;28.02;33.09;102119.94;5113341;28;20060;-44
2022/08/09 02:41:28;;;;;;;3.65;1.30;;;;;;;27.94;33.11;102129.50;5113304;28;20038;-44
2022/08/09 02:44:03;;;;;;;3.97;1.10;;;;;;;27.95;33.04;102136.56;5097558;28;20085;-47
2022/08/09 02:46:31;;;;;;;3.90;1.52;;;;;;;27.99;32.94;102127.78;5118234;28;20059;-45
2022/08/09 02:49:03;;;;;;;6.57;1.00;;;;;;;27.98;32.98;102138.34;5117123;28;20024;-44
2022/08/09 02:51:35;;;;;;;5.28;1.50;;;;;;;27.84;33.21;102127.56;5117076;28;20077;-44
2022/08/09 02:54:04;;;;;;;3.13;1.15;;;;;;;27.90;33.00;102135.59;5099592;28;20463;-44
2022/08/09 02:56:33;;;;;;;6.25;1.42;;;;;;;27.96;32.90;102133.06;5117484;28;20030;-44
2022/08/09 02:59:05;;;;;;;4.50;1.10;;;;;;;27.95;32.84;102133.00;5117261;28;20428;-51
2022/08/09 03:01:34;;;;;;;4.65;1.30;;;;;;;27.93;32.94;102135.63;5099281;28;20031;-44
2022/08/09 03:04:03;;;;;;;5.03;1.25;;;;;;;27.86;33.00;102133.75;5099433;28;20069;-44
2022/08/09 03:06:32;;;;;;;3.47;1.17;;;;;;;27.94;32.92;102137.41;5099322;28;20102;-44
2022/08/09 03:09:01;;;;;;;3.20;1.13;;;;;;;27.95;32.97;102135.66;5116844;28;20019;-44
2022/08/09 03:11:29;;;;;;;5.35;1.65;;;;;;;27.84;33.18;102123.22;5099028;28;20107;-45
2022/08/09 03:13:59;;;;;;;5.15;1.40;;;;;;;27.83;33.18;102126.69;5116907;28;20034;-44
2022/08/09 03:16:28;;;;;;;4.97;1.20;;;;;;;27.87;33.08;102132.91;5117424;28;20130;-44
2022/08/09 03:18:58;;;;;;;5.43;1.40;;;;;;;27.77;33.13;102131.00;5098523;28;20035;-45
2022/08/09 03:21:27;;;;;;;3.90;1.17;;;;;;;27.71;33.43;102131.78;5099147;28;20055;-44
2022/08/09 03:23:55;;;;;;;6.50;2.10;;;;;;;27.70;33.43;102138.81;5116871;28;20432;-44
2022/08/09 03:26:24;;;;;;;3.28;1.25;;;;;;;27.74;33.15;102132.72;5098951;28;20115;-48
2022/08/09 03:28:54;;;;;;;2.70;1.10;;;;;;;27.77;33.17;102134.50;5116804;28;20481;-46
2022/08/09 03:31:22;;;;;;;2.33;0.93;;;;;;;27.82;33.21;102134.56;5098894;28;20096;-45
2022/08/09 03:33:51;;;;;;;3.17;1.20;;;;;;;27.86;32.63;102124.13;5116457;28;20028;-45
2022/08/09 03:36:20;;;;;;;6.70;1.38;;;;;;;27.85;33.08;102132.00;5098545;28;20019;-44
2022/08/09 03:38:48;;;;;;;3.85;1.38;;;;;;;27.80;33.06;102128.41;5116988;28;20015;-44
2022/08/09 03:41:17;;;;;;;3.35;1.35;;;;;;;27.79;33.10;102121.38;5098375;28;20483;-44
2022/08/09 03:43:47;;;;;;;3.80;1.33;;;;;;;27.80;33.15;102117.88;5116344;28;20440;-44
2022/08/09 03:46:15;;;;;;;2.10;1.00;;;;;;;27.71;33.18;102124.75;5116717;28;20143;-45
2022/08/09 03:48:45;;;;;;;5.22;1.25;;;;;;;27.71;33.27;102130.03;5116313;28;20023;-44
2022/08/09 03:51:13;;;;;;;4.82;1.30;;;;;;;27.70;33.43;102120.34;5098288;28;20027;-44
2022/08/09 03:53:42;;;;;;;6.57;1.50;;;;;;;27.79;33.16;102122.25;5098033;28;20030;-44
2022/08/09 03:56:11;;;;;;;4.18;1.52;;;;;;;27.70;33.29;102133.53;5098237;28;20065;-44
2022/08/09 03:58:40;;;;;;;2.40;1.35;;;;;;;27.67;33.46;102136.13;5098448;28;20493;-45
2022/08/09 04:01:08;;;;;;;3.15;1.27;;;;;;;27.74;33.46;102131.81;5098171;28;20070;-45
2022/08/09 04:03:39;;;;;;;6.40;1.60;;;;;;;27.67;33.65;102133.47;5116033;28;20236;-47
2022/08/09 04:06:07;;;;;;;3.25;1.40;;;;;;;27.67;33.43;102140.50;5116418;28;20043;-50
2022/08/09 04:08:36;;;;;;;5.40;1.90;;;;;;;27.73;33.38;102132.69;5097640;28;20051;-43
2022/08/09 04:11:05;;;;;;;3.83;1.45;;;;;;;27.74;33.27;102134.44;5116274;28;20059;-44
2022/08/09 04:13:33;;;;;;;5.07;1.17;;;;;;;27.81;33.40;102141.59;5098443;28;20015;-44
2022/08/09 04:16:02;;;;;;;3.47;1.23;;;;;;;27.75;33.57;102137.13;5116411;28;20028;-44
2022/08/09 04:18:30;;;;;;;3.95;1.27;;;;;;;27.77;33.45;102141.53;5115928;28;20028;-45
2022/08/09 04:20:59;;;;;;;12.02;1.67;;;;;;;27.68;33.44;102131.75;5115675;28;20553;-44
2022/08/09 04:23:27;;;;;;;5.53;1.45;;;;;;;27.57;33.88;102145.63;5115924;28;20032;-45
2022/08/09 04:25:56;;;;;;;4.40;1.48;;;;;;;27.53;34.11;102157.00;5115747;28;20110;-47
2022/08/09 04:28:25;;;;;;;3.88;1.50;;;;;;;27.55;34.08;102143.84;5115116;28;20051;-45
2022/08/09 04:30:54;;;;;;;6.25;1.50;;;;;;;27.51;34.08;102149.91;5115212;28;20069;-44
2022/08/09 04:33:22;;;;;;;5.32;1.83;;;;;;;27.51;34.15;102142.91;5098018;28;20023;-46
2022/08/09 04:35:51;;;;;;;2.63;1.35;;;;;;;27.48;34.06;102136.66;5080352;28;20426;-44
2022/08/09 04:38:19;;;;;;;7.88;1.67;;;;;;;27.49;34.01;102122.63;5115061;28;20020;-46
2022/08/09 04:40:48;;;;;;;2.97;1.30;;;;;;;27.57;33.95;102150.03;5115649;28;20070;-44
2022/08/09 04:43:17;;;;;;;3.67;1.35;;;;;;;27.49;34.17;102149.88;5115424;28;20370;-53
2022/08/09 04:45:45;;;;;;;4.40;1.98;;;;;;;27.56;34.20;102145.59;5115481;28;20390;-45
2022/08/09 04:48:14;;;;;;;5.43;1.20;;;;;;;27.58;34.26;102146.53;5115333;28;20028;-51
2022/08/09 04:50:43;;;;;;;2.83;1.38;;;;;;;27.51;33.90;102142.00;5115486;28;20588;-48
2022/08/09 04:53:12;;;;;;;3.17;1.27;;;;;;;27.51;34.41;102149.91;5096894;28;20028;-46
2022/08/09 04:55:41;;;;;;;3.40;1.20;;;;;;;27.57;34.14;102153.53;5115449;28;20051;-46
2022/08/09 04:58:10;;;;;;;5.13;1.40;;;;;;;27.62;33.95;102151.00;5114958;28;20023;-47
2022/08/09 05:00:38;;;;;;;4.95;1.35;;;;;;;27.59;34.17;102150.94;5115238;28;20040;-52
2022/08/09 05:03:07;;;;;;;4.43;1.48;;;;;;;27.64;33.93;102158.91;5114960;28;20112;-45
2022/08/09 05:05:36;;;;;;;3.85;1.33;;;;;;;27.65;34.10;102160.69;5114847;28;20072;-45
2022/08/09 05:08:04;;;;;;;4.45;1.30;;;;;;;27.62;34.08;102158.91;5113907;28;20026;-47
2022/08/09 05:10:33;;;;;;;4.32;1.30;;;;;;;27.61;33.97;102170.31;5114614;28;20028;-45
2022/08/09 05:13:02;;;;;;;7.57;1.90;;;;;;;27.56;34.13;102157.03;5114877;28;20118;-47
2022/08/09 05:15:30;;;;;;;3.67;1.10;;;;;;;27.60;34.04;102163.25;5114869;28;20486;-46
2022/08/09 05:17:59;;;;;;;2.55;1.05;;;;;;;27.50;34.12;102158.66;5114767;28;20435;-44
2022/08/09 05:20:28;;;;;;;5.22;1.90;;;;;;;27.62;33.92;102160.63;5114854;28;20024;-44
2022/08/09 05:22:57;;;;;;;9.40;1.58;;;;;;;27.60;33.97;102161.50;5114428;28;20105;-46
2022/08/09 05:25:26;;;;;;;3.45;1.40;;;;;;;27.59;34.23;102161.47;5114702;28;20077;-44
2022/08/09 05:27:56;;;;;;;3.70;1.60;;;;;;;27.48;34.18;102150.75;5114344;28;20054;-45
2022/08/09 05:30:24;;;;;;;3.92;1.63;;;;;;;27.55;34.21;102164.91;5114493;28;20513;-44
2022/08/09 05:32:53;;;;;;;8.18;2.30;;;;;;;27.58;34.10;102165.84;5114206;28;20027;-46
2022/08/09 05:35:22;;;;;;;3.80;1.25;;;;;;;27.59;34.08;102179.94;5114081;28;20531;-45
2022/08/09 05:37:51;;;;;;;3.58;1.30;;;;;;;27.52;34.20;102157.84;5095554;28;20035;-44
2022/08/09 05:40:19;;;;;;;3.53;1.30;;;;;;;27.60;34.09;102171.16;5114287;28;20486;-44
2022/08/09 05:42:48;;;;;;;4.15;1.23;;;;;;;27.67;33.92;102159.84;5114127;28;20060;-44
2022/08/09 05:45:17;;;;;;;3.75;1.33;;;;;;;27.70;34.11;102173.06;5113929;28;20415;-45
2022/08/09 05:47:45;;;;;;;3.13;1.20;;;;;;;27.76;33.89;102177.56;5114380;28;20500;-44
2022/08/09 05:50:14;;;;;;;2.50;1.35;;;;;;;27.79;33.96;102174.09;5114036;28;20027;-45
2022/08/09 05:52:44;;;;;;;4.63;1.80;;;;;;;27.80;33.88;102178.50;5114170;28;20020;-47
2022/08/09 05:55:13;;;;;;;2.97;1.35;;;;;;;27.83;33.94;102170.63;5095470;28;20463;-48
2022/08/09 05:57:41;;;;;;;3.50;1.20;;;;;;;27.90;33.80;102177.78;5113684;28;20498;-46
2022/08/09 06:00:11;;;;;;;4.60;1.38;;;;;;;27.93;33.78;102185.75;5113734;28;20115;-47
2022/08/09 06:02:39;;;;;;;2.60;1.00;;;;;;;27.96;33.71;102183.16;5095696;28;20027;-52
2022/08/09 06:05:08;;;;;;;4.38;1.40;;;;;;;27.97;33.65;102182.28;5113752;28;20156;-48
2022/08/09 06:07:37;;;;;;;2.88;1.15;;;;;;;28.05;33.59;102193.84;5113782;28;20035;-52
2022/08/09 06:10:06;;;;;;;5.00;1.25;;;;;;;28.03;33.62;102189.41;5113423;28;20489;-45
2022/08/09 06:12:35;;;;;;;3.45;1.40;;;;;;;28.09;33.58;102189.50;5114001;28;20030;-44
2022/08/09 06:15:04;;;;;;;3.45;1.10;;;;;;;28.12;33.32;102197.50;5095371;28;20023;-44
2022/08/09 06:17:32;;;;;;;3.45;1.15;;;;;;;28.17;33.24;102194.91;5113351;28;20034;-45
2022/08/09 06:20:01;;;;;;;3.08;1.10;;;;;;;28.23;33.28;102199.38;5113481;28;20019;-44
2022/08/09 06:22:29;;;;;;;4.47;1.60;;;;;;;28.27;33.26;102207.38;5113862;28;20095;-53
2022/08/09 06:24:58;;;;;;;4.65;1.90;;;;;;;28.28;33.46;102208.25;5113869;28;20471;-46
2022/08/09 06:27:27;;;;;;;3.63;1.08;;;;;;;28.34;33.26;102213.63;5113759;28;20080;-45
2022/08/09 06:29:55;;;;;;;7.45;1.02;;;;;;;28.40;33.34;102216.34;5113340;28;20095;-47
2022/08/09 06:32:24;;;;;;;2.30;1.20;;;;;;;28.45;33.10;102213.78;5113108;28;20077;-44
2022/08/09 06:34:53;;;;;;;3.78;1.48;;;;;;;28.42;33.47;102208.47;5113379;28;20115;-45
2022/08/09 06:37:21;;;;;;;4.95;1.30;;;;;;;28.47;33.50;102214.66;5096101;28;20046;-46
2022/08/09 06:39:50;;;;;;;3.35;1.05;;;;;;;28.61;33.45;102221.06;5113259;28;20032;-44
2022/08/09 06:42:19;;;;;;;3.85;1.40;;;;;;;28.57;33.53;102219.22;5113215;28;20507;-49
2022/08/09 06:44:48;;;;;;;5.18;1.13;;;;;;;28.68;33.29;102221.09;5113533;28;20031;-44
2022/08/09 06:47:17;;;;;;;3.65;1.58;;;;;;;28.74;33.42;102226.50;5113679;28;20062;-45
2022/08/09 06:49:45;;;;;;;3.53;1.30;;;;;;;28.75;33.76;102231.81;5095349;28;20024;-46
2022/08/09 06:52:13;;;;;;;6.43;1.65;;;;;;;28.70;33.60;102224.66;5113379;28;20459;-45
2022/08/09 06:54:40;;;;;;;4.07;1.55;;;;;;;28.70;33.93;102236.13;5113055;28;20027;-44
2022/08/09 06:57:10;;;;;;;9.45;1.60;;;;;;;28.73;33.94;102240.53;5113121;28;20032;-44
2022/08/09 06:59:38;;;;;;;7.45;1.77;;;;;;;28.71;34.38;102237.00;5113647;28;20381;-48
2022/08/09 07:02:07;;;;;;;7.90;2.22;;;;;;;28.69;34.05;102228.16;5113376;28;20039;-45
2022/08/09 07:04:36;;;;;;;4.07;1.33;;;;;;;28.77;34.03;102239.75;5095283;28;20335;-54
2022/08/09 07:07:05;;;;;;;5.72;1.50;;;;;;;28.77;34.02;102231.84;5113141;28;20024;-44
2022/08/09 07:09:33;;;;;;;5.75;1.83;;;;;;;28.79;33.98;102233.63;5112791;28;20051;-45
2022/08/09 07:12:02;;;;;;;6.47;1.85;;;;;;;28.81;34.17;102238.91;5094923;28;20066;-44
2022/08/09 07:14:30;;;;;;;7.40;1.92;;;;;;;28.88;34.04;102237.22;5094972;28;20032;-44
2022/08/09 07:16:59;;;;;;;7.55;1.92;;;;;;;28.90;34.44;102243.41;5113240;28;20160;-45
2022/08/09 07:19:27;;;;;;;9.63;1.80;;;;;;;28.90;34.54;102231.13;5112738;28;20471;-47
2022/08/09 07:21:56;;;;;;;3.78;1.48;;;;;;;28.86;34.24;102239.88;5112932;28;20031;-45
2022/08/09 07:24:25;;;;;;;14.55;2.08;;;;;;;28.89;34.40;102237.25;5113102;28;20012;-45
2022/08/09 07:26:53;;;;;;;7.20;2.33;;;;;;;28.88;34.38;102235.50;5112891;28;20114;-43
2022/08/09 07:29:22;;;;;;;5.32;1.70;;;;;;;28.93;34.11;102243.47;5113605;28;20012;-45
2022/08/09 07:31:50;;;;;;;4.40;1.60;;;;;;;28.92;34.02;102241.69;5116328;28;20529;-46
2022/08/09 07:34:19;;;;;;;7.38;1.90;;;;;;;28.98;34.38;102235.59;5116446;28;20035;-46
2022/08/09 07:36:46;;;;;;;7.00;2.17;;;;;;;29.02;34.15;102235.66;5093521;28;20043;-45
2022/08/09 07:39:14;;;;;;;7.30;1.70;;;;;;;28.96;34.14;102235.59;5087345;28;20494;-45
2022/08/09 07:41:41;;;;;;;4.50;1.90;;;;;;;29.05;34.40;102245.38;5108745;28;20030;-46
2022/08/09 07:44:09;;;;;;;6.38;1.85;;;;;;;29.01;34.35;102235.63;5073145;28;20054;-48
2022/08/09 07:46:38;;;;;;;5.15;1.42;;;;;;;29.07;33.98;102231.28;5077740;28;20028;-47
2022/08/09 07:49:07;;;;;;;7.47;1.58;;;;;;;29.05;33.99;102240.09;5095757;28;20471;-45
2022/08/09 07:51:35;;;;;;;6.53;1.30;;;;;;;29.06;33.99;102220.72;5096251;28;20020;-43
2022/08/09 07:54:04;;;;;;;5.28;1.52;;;;;;;29.13;33.31;102230.47;5095875;28;20107;-44
2022/08/09 07:56:32;;;;;;;6.95;1.77;;;;;;;29.04;33.88;102230.38;5085815;28;20024;-46
2022/08/09 07:58:59;;;;;;;7.65;1.95;;;;;;;28.97;34.47;102226.78;5104479;28;20043;-52
2022/08/09 08:01:27;;;;;;;4.07;1.67;;;;;;;29.10;33.72;102225.19;5085116;28;20043;-46
2022/08/09 08:03:55;;;;;;;6.57;2.35;;;;;;;29.15;33.79;102225.22;5103800;28;20448;-54
2022/08/09 08:06:23;;;;;;;6.45;1.60;;;;;;;29.23;33.37;102229.72;5085642;28;20530;-49
2022/08/09 08:08:50;;;;;;;6.13;1.35;;;;;;;29.25;33.57;102232.38;5103383;28;20051;-53
2022/08/09 08:11:17;;;;;;;4.22;1.67;;;;;;;29.25;33.57;102227.97;5085823;28;20031;-52
2022/08/09 08:13:45;;;;;;;5.13;1.50;;;;;;;29.24;33.60;102238.53;5104157;28;20034;-48
2022/08/09 08:16:12;;;;;;;4.65;1.88;;;;;;;29.33;33.21;102243.91;5085669;28;20062;-48
2022/08/09 08:18:40;;;;;;;5.25;1.42;;;;;;;29.45;32.88;102242.28;5103329;28;20035;-48
2022/08/09 08:21:07;;;;;;;5.15;2.05;;;;;;;29.39;33.02;102233.44;5103549;28;20101;-47
2022/08/09 08:23:34;;;;;;;7.03;1.67;;;;;;;29.44;32.93;102252.00;5068388;28;20034;-45
2022/08/09 08:26:01;;;;;;;7.15;1.73;;;;;;;29.48;32.56;102240.56;5086323;28;20479;-45
2022/08/09 08:28:29;;;;;;;6.82;1.77;;;;;;;29.55;32.62;102231.81;5103966;28;20542;-47
2022/08/09 08:30:56;;;;;;;3.75;1.63;;;;;;;29.43;32.88;102242.28;5084867;28;20051;-49
2022/08/09 08:33:24;;;;;;;4.55;1.70;;;;;;;29.44;32.88;102246.72;5085000;28;20035;-46
2022/08/09 08:35:52;;;;;;;6.95;1.85;;;;;;;29.38;32.67;102220.19;5103606;28;20028;-46
2022/08/09 08:38:20;;;;;;;6.60;1.83;;;;;;;29.50;32.86;102235.31;5084763;28;20051;-46
2022/08/09 08:40:49;;;;;;;8.48;1.95;;;;;;;29.54;32.59;102230.06;5102237;28;20066;-47
2022/08/09 08:43:17;;;;;;;4.45;1.70;;;;;;;29.56;32.29;102227.41;5102011;28;20074;-46
2022/08/09 08:45:57;;;;;;;6.45;1.65;;;;;;;29.67;32.24;102222.22;5084339;28;20158;-45
2022/08/09 08:48:25;;;;;;;5.47;1.50;;;;;;;29.66;32.46;102204.59;5102912;28;20055;-47
2022/08/09 08:50:53;;;;;;;8.88;1.52;;;;;;;29.90;32.00;102229.47;5101766;28;20028;-48
2022/08/09 08:53:20;;;;;;;7.32;1.58;;;;;;;29.93;32.03;102224.22;5103130;28;20070;-45
2022/08/09 08:55:49;;;;;;;4.10;1.40;;;;;;;29.71;32.35;102222.25;5102785;28;20035;-49
2022/08/09 08:58:16;;;;;;;4.68;1.50;;;;;;;29.67;32.10;102224.88;5103292;28;20494;-52
2022/08/09 09:00:45;;;;;;;4.90;1.60;;;;;;;29.70;32.21;102212.53;5103917;28;20121;-49
2022/08/09 09:03:15;;;;;;;14.93;2.03;;;;;;;29.71;31.76;102216.97;5103519;28;20028;-47
2022/08/09 09:05:44;;;;;;;4.93;1.60;;;;;;;29.75;31.63;102214.34;5101747;28;20058;-46
2022/08/09 09:08:14;;;;;;;4.68;1.50;;;;;;;29.62;31.95;102197.53;5103508;28;20046;-47
2022/08/09 09:10:43;;;;;;;5.22;1.38;;;;;;;29.68;31.60;102210.78;5103671;28;20032;-50
2022/08/09 09:13:11;;;;;;;5.53;1.52;;;;;;;29.68;31.54;102216.06;5084934;28;20422;-47
2022/08/09 09:15:39;;;;;;;4.63;1.42;;;;;;;29.83;30.75;102204.72;5103261;28;20111;-48
2022/08/09 09:18:07;;;;;;;7.28;1.67;;;;;;;29.80;30.37;102197.63;5102566;28;20031;-48
2022/08/09 09:20:37;;;;;;;8.05;1.45;;;;;;;29.92;30.53;102206.56;5083834;28;20070;-45
2022/08/09 09:23:05;;;;;;;5.07;1.50;;;;;;;29.86;30.71;102205.63;5067878;28;20478;-46
2022/08/09 09:25:34;;;;;;;8.27;1.65;;;;;;;29.98;29.99;102215.47;5102053;28;20066;-49
2022/08/09 09:28:02;;;;;;;3.65;1.13;;;;;;;30.01;29.87;102206.66;5103094;28;20822;-45
2022/08/09 09:30:30;;;;;;;4.38;1.40;;;;;;;30.01;29.37;102202.25;5102788;28;20059;-55
2022/08/09 09:33:10;;;;;;;6.72;1.27;;;;;;;29.93;28.90;102203.91;5102864;28;20035;-45
2022/08/09 09:35:59;;;;;;;3.78;1.27;;;;;;;29.91;28.64;102200.38;5101702;28;20031;-46
2022/08/09 09:38:48;;;;;;;6.30;1.10;;;;;;;30.00;28.89;102199.56;5102162;28;20819;-48
2022/08/09 09:41:25;;;;;;;4.72;1.50;;;;;;;29.90;29.05;102201.25;5102501;28;20680;-47
2022/08/09 09:43:54;;;;;;;6.70;1.95;;;;;;;29.88;29.41;102199.47;5101982;28;20040;-49
2022/08/09 09:46:33;;;;;;;8.93;2.10;;;;;;;29.85;29.50;102198.56;5101434;28;20023;-47
2022/08/09 09:49:03;;;;;;;4.50;1.35;;;;;;;29.92;28.84;102190.69;5101778;28;20455;-53
2022/08/09 09:51:32;;;;;;;5.32;1.60;;;;;;;29.95;29.17;102185.44;5101714;28;20147;-47
2022/08/09 09:54:14;;;;;;;5.85;2.05;;;;;;;30.00;28.67;102192.53;5101063;28;20467;-46
2022/08/09 09:56:43;;;;;;;8.32;1.58;;;;;;;30.05;28.03;102184.63;5100934;28;20052;-49
2022/08/09 09:59:14;;;;;;;7.43;1.17;;;;;;;30.08;27.77;102187.31;5101714;28;20457;-45
2022/08/09 10:01:43;;;;;;;4.53;1.20;;;;;;;30.13;27.12;102184.69;5102271;28;20460;-47
2022/08/09 10:04:16;;;;;;;4.68;0.98;;;;;;;29.99;27.21;102187.22;5101742;28;20406;-52
2022/08/09 10:06:46;;;;;;;3.30;1.10;;;;;;;30.14;26.69;102187.31;5065319;28;20032;-49
2022/08/09 10:09:15;;;;;;;6.07;1.20;;;;;;;30.14;26.85;102175.88;5101392;28;20052;-49
2022/08/09 10:11:43;;;;;;;8.48;1.48;;;;;;;30.16;26.66;102179.41;5102624;28;21273;-50
2022/08/09 10:14:30;;;;;;;6.75;1.17;;;;;;;30.01;26.49;102183.72;5101482;28;20065;-47
2022/08/09 10:16:57;;;;;;;5.88;1.33;;;;;;;29.96;27.13;102166.03;5100600;28;20039;-55
2022/08/09 10:19:44;;;;;;;4.82;1.48;;;;;;;30.13;26.92;102169.66;5101859;28;20650;-52
2022/08/09 10:22:12;;;;;;;3.75;0.98;;;;;;;30.13;27.05;102184.69;5083587;28;20035;-49
2022/08/09 10:24:40;;;;;;;3.50;0.93;;;;;;;30.04;26.35;102176.66;5102317;28;20040;-46
2022/08/09 10:27:08;;;;;;;6.32;1.15;;;;;;;30.10;26.57;102174.06;5101334;28;20394;-50
2022/08/09 10:29:35;;;;;;;9.68;1.33;;;;;;;30.19;25.85;102171.50;5101298;28;20059;-51
2022/08/09 10:32:02;;;;;;;5.85;1.20;;;;;;;30.15;26.61;102172.34;5083017;28;20062;-51
2022/08/09 10:34:30;;;;;;;3.90;1.20;;;;;;;30.16;26.22;102172.34;5101843;28;20896;-54
2022/08/09 10:36:57;;;;;;;10.07;1.35;;;;;;;30.21;26.29;102169.72;5081858;28;20036;-53
2022/08/09 10:39:24;;;;;;;4.70;1.00;;;;;;;30.25;26.20;102168.84;5082151;28;20044;-51
2022/08/09 10:41:53;;;;;;;3.35;1.00;;;;;;;30.16;26.06;102168.81;5101557;28;20038;-49
2022/08/09 10:44:21;;;;;;;4.70;1.25;;;;;;;30.31;25.72;102155.66;5102936;28;20032;-48
2022/08/09 10:47:27;;;;;;;4.07;1.10;;;;;;;30.29;25.43;102161.81;5099945;28;20379;-47
2022/08/09 10:50:11;;;;;;;4.55;1.10;;;;;;;30.34;24.85;102151.28;5099386;28;20055;-52
2022/08/09 10:52:43;;;;;;;2.40;0.98;;;;;;;30.29;25.48;102160.06;5082299;28;20045;-47
2022/08/09 10:55:21;;;;;;;4.47;1.08;;;;;;;30.37;25.85;102152.16;5083428;28;20934;-50
2022/08/09 10:57:49;;;;;;;3.30;1.27;;;;;;;30.36;25.43;102149.50;5100823;28;20069;-50
2022/08/09 11:00:38;;;;;;;3.75;1.27;;;;;;;30.26;25.64;102144.16;5082400;28;20035;-46
2022/08/09 11:03:21;;;;;;;3.33;1.30;;;;;;;30.11;26.42;102139.69;5093297;28;20059;-46
2022/08/09 11:06:11;;;;;;;6.97;1.23;;;;;;;30.31;26.06;102136.22;5103229;28;20032;-47
2022/08/09 11:08:41;;;;;;;4.57;0.95;;;;;;;30.32;26.82;102135.34;5106427;28;20031;-46
2022/08/09 11:11:09;;;;;;;3.33;0.90;;;;;;;30.32;26.71;102135.34;5104634;28;20031;-45
2022/08/09 11:13:37;;;;;;;4.65;1.02;;;;;;;30.32;26.50;102124.78;5105121;28;20465;-45
2022/08/09 11:16:35;;;;;;;3.50;1.20;;;;;;;30.33;26.95;102133.63;5104275;28;20032;-48
2022/08/09 11:19:05;;;;;;;3.88;1.20;;;;;;;30.40;26.79;102128.34;5100773;28;20043;-49
2022/08/09 11:21:57;;;;;;;5.68;1.17;;;;;;;30.36;26.62;102121.28;5105456;28;20028;-48
2022/08/09 11:24:25;;;;;;;2.72;1.05;;;;;;;30.52;26.19;102119.56;5104064;28;20027;-52
2022/08/09 11:26:54;;;;;;;2.72;1.27;;;;;;;30.47;26.49;102110.72;5104197;28;20032;-47
2022/08/09 11:30:00;;;;;;;16.55;1.67;;;;;;;30.50;26.43;102126.63;5085663;28;20028;-52
2022/08/09 11:32:49;;;;;;;6.28;1.50;;;;;;;30.60;26.21;102116.97;5103758;28;20481;-46
2022/08/09 11:35:26;;;;;;;3.22;1.00;;;;;;;30.68;26.75;102112.56;5095633;28;20124;-51
2022/08/09 11:37:58;;;;;;;2.88;1.10;;;;;;;30.74;26.67;102114.34;5104819;28;20477;-48
2022/08/09 11:40:31;;;;;;;5.20;1.00;;;;;;;30.76;26.67;102107.28;5103640;28;20036;-46